createdAt,value
2022-08-20T00:00:43.900Z,19.65
2022-08-20T00:03:14.143Z,19.64
2022-08-20T00:05:47.041Z,19.63
2022-08-20T00:08:13.724Z,19.53
2022-08-20T00:10:42.856Z,19.51
2022-08-20T00:13:18.180Z,19.35
2022-08-20T00:15:45.638Z,19.40
2022-08-20T00:18:12.883Z,19.16
2022-08-20T00:20:43.066Z,19.10
2022-08-20T00:23:10.700Z,19.27
2022-08-20T00:25:38.103Z,19.16
2022-08-20T00:28:07.095Z,18.89
2022-08-20T00:30:36.046Z,19.01
2022-08-20T00:33:06.975Z,18.96
2022-08-20T00:35:36.084Z,18.45
2022-08-20T00:38:04.554Z,18.47
2022-08-20T00:40:37.213Z,18.41
2022-08-20T00:43:07.300Z,18.50
2022-08-20T00:45:35.805Z,18.52
2022-08-20T00:48:02.846Z,18.67
2022-08-20T00:50:36.644Z,18.79
2022-08-20T00:53:08.528Z,18.31
2022-08-20T00:55:36.141Z,18.31
2022-08-20T00:58:09.097Z,18.39
2022-08-20T01:00:42.960Z,18.10
2022-08-20T01:03:11.412Z,18.02
2022-08-20T01:05:40.544Z,18.06
2022-08-20T01:08:07.868Z,18.20
2022-08-20T01:10:37.449Z,18.21
2022-08-20T01:13:11.148Z,18.02
2022-08-20T01:15:43.975Z,18.21
2022-08-20T01:18:14.623Z,18.19
2022-08-20T01:20:46.814Z,18.39
2022-08-20T01:23:43.285Z,18.40
2022-08-20T01:26:17.767Z,18.36
2022-08-20T01:28:53.602Z,18.24
2022-08-20T01:31:26.267Z,18.29
2022-08-20T01:33:55.196Z,18.23
2022-08-20T01:36:40.136Z,18.09
2022-08-20T01:39:12.852Z,18.24
2022-08-20T01:41:47.683Z,18.22
2022-08-20T01:44:18.532Z,18.28
2022-08-20T01:46:46.854Z,18.17
2022-08-20T01:49:19.204Z,18.34
2022-08-20T01:51:52.554Z,18.22
2022-08-20T01:54:19.818Z,18.26
2022-08-20T01:57:11.547Z,18.47
2022-08-20T01:59:38.682Z,18.76
2022-08-20T02:02:07.061Z,18.95
2022-08-20T02:04:34.347Z,19.07
2022-08-20T02:07:04.250Z,19.01
2022-08-20T02:09:36.499Z,19.04
2022-08-20T02:12:06.053Z,19.32
2022-08-20T02:14:33.542Z,19.40
2022-08-20T02:17:00.799Z,19.54
2022-08-20T02:19:32.411Z,19.74
2022-08-20T02:22:03.084Z,19.72
2022-08-20T02:24:30.137Z,19.67
2022-08-20T02:26:57.180Z,19.62
2022-08-20T02:29:24.042Z,19.80
2022-08-20T02:32:24.468Z,19.82
2022-08-20T02:34:37.700Z,19.68
2022-08-20T02:37:06.320Z,19.63
2022-08-20T02:39:33.622Z,18.91
2022-08-20T02:42:01.859Z,18.91
2022-08-20T02:44:28.636Z,18.95
2022-08-20T02:46:55.603Z,18.90
2022-08-20T02:49:22.307Z,18.94
2022-08-20T02:51:49.733Z,18.96
2022-08-20T02:54:17.431Z,18.88
2022-08-20T02:56:44.434Z,18.88
2022-08-20T02:59:11.115Z,18.87
2022-08-20T03:01:45.797Z,18.38
2022-08-20T03:04:12.472Z,18.17
2022-08-20T03:06:39.116Z,18.08
2022-08-20T03:09:07.813Z,18.04
2022-08-20T03:11:35.060Z,17.97
2022-08-20T03:14:02.408Z,17.84
2022-08-20T03:16:29.144Z,17.53
2022-08-20T03:18:55.899Z,17.48
2022-08-20T03:21:22.571Z,17.43
2022-08-20T03:23:49.369Z,17.17
2022-08-20T03:26:16.602Z,17.12
2022-08-20T03:28:43.465Z,17.14
2022-08-20T03:31:12.534Z,17.23
2022-08-20T03:33:52.667Z,17.26
2022-08-20T03:36:27.859Z,17.15
2022-08-20T03:39:00.016Z,17.03
2022-08-20T03:41:26.829Z,17.01
2022-08-20T03:43:53.684Z,17.02
2022-08-20T03:46:23.390Z,17.04
2022-08-20T03:48:56.705Z,17.04
2022-08-20T03:51:30.762Z,17.14
2022-08-20T03:53:57.962Z,17.05
2022-08-20T03:56:25.409Z,17.18
2022-08-20T03:58:52.240Z,17.19
2022-08-20T04:01:44.377Z,17.21
2022-08-20T04:04:05.760Z,17.35
2022-08-20T04:06:39.756Z,17.18
2022-08-20T04:09:07.323Z,17.27
2022-08-20T04:11:37.616Z,17.51
2022-08-20T04:14:04.712Z,17.58
2022-08-20T04:16:33.520Z,17.71
2022-08-20T04:19:02.271Z,17.85
2022-08-20T04:21:33.201Z,17.91
2022-08-20T04:24:00.616Z,17.84
2022-08-20T04:26:27.307Z,17.31
2022-08-20T04:28:55.563Z,17.41
2022-08-20T04:31:25.317Z,17.30
2022-08-20T04:33:52.842Z,17.56
2022-08-20T04:36:19.605Z,17.32
2022-08-20T04:38:49.920Z,17.29
2022-08-20T04:41:22.836Z,17.26
2022-08-20T04:43:53.181Z,17.30
2022-08-20T04:46:21.032Z,17.06
2022-08-20T04:48:48.586Z,16.90
2022-08-20T04:51:18.589Z,16.85
2022-08-20T04:53:53.196Z,16.90
2022-08-20T04:56:24.060Z,16.71
2022-08-20T04:58:53.285Z,16.66
2022-08-20T05:01:20.255Z,16.53
2022-08-20T05:03:49.837Z,16.43
2022-08-20T05:06:18.092Z,16.55
2022-08-20T05:08:45.100Z,16.54
2022-08-20T05:11:34.736Z,16.55
2022-08-20T05:13:59.090Z,16.66
2022-08-20T05:16:25.804Z,16.63
2022-08-20T05:18:53.066Z,16.60
2022-08-20T05:21:21.078Z,16.68
2022-08-20T05:23:47.825Z,16.58
2022-08-20T05:26:16.111Z,16.77
2022-08-20T05:28:54.448Z,16.64
2022-08-20T05:31:32.537Z,16.64
2022-08-20T05:34:09.720Z,16.58
2022-08-20T05:36:45.466Z,16.53
2022-08-20T05:39:14.859Z,16.69
2022-08-20T05:41:42.269Z,16.59
2022-08-20T05:44:13.401Z,16.64
2022-08-20T05:46:43.608Z,16.56
2022-08-20T05:49:13.632Z,16.49
2022-08-20T05:51:40.323Z,16.56
2022-08-20T05:54:07.560Z,16.63
2022-08-20T05:56:34.959Z,16.39
2022-08-20T05:59:06.420Z,16.51
2022-08-20T06:01:34.964Z,16.60
2022-08-20T06:04:20.213Z,16.35
2022-08-20T06:06:47.620Z,16.48
2022-08-20T06:09:16.581Z,16.47
2022-08-20T06:11:59.608Z,16.45
2022-08-20T06:14:26.738Z,16.59
2022-08-20T06:16:57.844Z,16.35
2022-08-20T06:19:27.035Z,16.46
2022-08-20T06:21:58.743Z,16.37
2022-08-20T06:24:25.439Z,16.43
2022-08-20T06:26:56.992Z,16.31
2022-08-20T06:29:23.645Z,16.12
2022-08-20T06:31:50.442Z,16.20
2022-08-20T06:34:18.876Z,16.21
2022-08-20T06:36:46.863Z,16.31
2022-08-20T06:39:15.306Z,16.49
2022-08-20T06:41:42.403Z,16.47
2022-08-20T06:44:10.175Z,16.73
2022-08-20T06:46:38.296Z,17.00
2022-08-20T06:49:07.257Z,17.24
2022-08-20T06:51:34.675Z,17.30
2022-08-20T06:54:01.542Z,17.13
2022-08-20T06:56:28.248Z,17.50
2022-08-20T06:58:54.922Z,17.69
2022-08-20T07:01:21.716Z,17.68
2022-08-20T07:03:55.778Z,17.92
2022-08-20T07:06:25.888Z,17.96
2022-08-20T07:08:54.162Z,17.96
2022-08-20T07:11:26.510Z,18.18
2022-08-20T07:13:54.511Z,18.23
2022-08-20T07:16:21.143Z,18.38
2022-08-20T07:18:47.829Z,18.46
2022-08-20T07:21:14.516Z,18.53
2022-08-20T07:23:42.213Z,18.59
2022-08-20T07:26:11.040Z,18.46
2022-08-20T07:28:37.706Z,18.44
2022-08-20T07:31:23.170Z,18.61
2022-08-20T07:33:50.410Z,18.72
2022-08-20T07:36:17.808Z,18.82
2022-08-20T07:38:47.202Z,18.86
2022-08-20T07:41:14.996Z,18.88
2022-08-20T07:43:45.696Z,18.95
2022-08-20T07:46:20.726Z,19.00
2022-08-20T07:48:50.218Z,18.66
2022-08-20T07:51:22.442Z,18.65
2022-08-20T07:53:51.707Z,18.90
2022-08-20T07:56:24.463Z,19.08
2022-08-20T07:58:55.314Z,18.91
2022-08-20T08:01:28.634Z,18.88
2022-08-20T08:03:57.603Z,18.56
2022-08-20T08:06:29.646Z,18.25
2022-08-20T08:09:13.720Z,18.11
2022-08-20T08:11:50.135Z,18.07
2022-08-20T08:14:23.662Z,18.21
2022-08-20T08:16:51.110Z,18.50
2022-08-20T08:19:18.699Z,18.24
2022-08-20T08:21:45.600Z,18.06
2022-08-20T08:24:16.684Z,18.09
2022-08-20T08:26:49.134Z,18.23
2022-08-20T08:29:16.479Z,17.97
2022-08-20T08:31:43.253Z,17.80
2022-08-20T08:34:10.016Z,17.98
2022-08-20T08:36:36.627Z,18.09
2022-08-20T08:39:03.343Z,17.86
2022-08-20T08:41:35.441Z,17.66
2022-08-20T08:44:12.256Z,17.88
2022-08-20T08:46:42.759Z,18.02
2022-08-20T08:49:16.201Z,17.89
2022-08-20T08:51:48.637Z,17.84
2022-08-20T08:54:21.383Z,17.72
2022-08-20T08:56:49.901Z,17.68
2022-08-20T08:59:19.361Z,17.81
2022-08-20T09:01:56.845Z,17.77
2022-08-20T09:04:32.213Z,17.80
2022-08-20T09:07:01.872Z,17.99
2022-08-20T09:09:39.727Z,17.91
2022-08-20T09:12:19.022Z,18.14
2022-08-20T09:14:50.620Z,17.95
2022-08-20T09:17:19.880Z,17.83
2022-08-20T09:19:46.876Z,17.72
2022-08-20T09:22:17.558Z,17.58
2022-08-20T09:24:45.165Z,17.40
2022-08-20T09:27:12.419Z,17.33
2022-08-20T09:29:40.283Z,17.11
2022-08-20T09:32:13.376Z,16.92
2022-08-20T09:34:44.838Z,17.14
2022-08-20T09:37:12.464Z,16.84
2022-08-20T09:39:39.647Z,16.81
2022-08-20T09:42:12.137Z,16.64
2022-08-20T09:44:38.967Z,16.94
2022-08-20T09:47:05.854Z,16.94
2022-08-20T09:49:32.957Z,16.65
2022-08-20T09:52:01.389Z,16.59
2022-08-20T09:54:30.244Z,16.75
2022-08-20T09:57:02.499Z,16.48
2022-08-20T09:59:31.330Z,16.28
2022-08-20T10:01:58.231Z,16.38
2022-08-20T10:04:25.004Z,16.58
2022-08-20T10:06:51.804Z,16.96
2022-08-20T10:09:19.065Z,17.29
2022-08-20T10:11:45.767Z,17.62
2022-08-20T10:14:12.466Z,17.88
2022-08-20T10:16:39.088Z,17.74
2022-08-20T10:19:06.096Z,17.80
2022-08-20T10:21:38.124Z,17.46
2022-08-20T10:24:05.782Z,17.28
2022-08-20T10:26:32.448Z,17.27
2022-08-20T10:28:59.099Z,17.18
2022-08-20T10:31:25.779Z,17.26
2022-08-20T10:33:52.436Z,17.36
2022-08-20T10:36:19.153Z,17.44
2022-08-20T10:38:46.437Z,17.79
2022-08-20T10:41:13.325Z,18.06
2022-08-20T10:43:40.090Z,18.37
2022-08-20T10:46:07.024Z,18.48
2022-08-20T10:48:33.797Z,18.68
2022-08-20T10:51:00.748Z,18.76
2022-08-20T10:53:27.463Z,18.95
2022-08-20T10:55:54.914Z,19.11
2022-08-20T10:58:23.764Z,19.22
2022-08-20T11:00:52.224Z,19.29
2022-08-20T11:03:19.432Z,19.20
2022-08-20T11:05:46.655Z,18.71
2022-08-20T11:08:13.360Z,18.66
2022-08-20T11:10:41.166Z,18.85
2022-08-20T11:13:08.587Z,18.98
2022-08-20T11:15:42.128Z,19.04
2022-08-20T11:18:09.215Z,18.98
2022-08-20T11:20:37.022Z,19.08
2022-08-20T11:23:04.217Z,19.13
2022-08-20T11:25:31.804Z,19.13
2022-08-20T11:27:59.267Z,19.12
2022-08-20T11:30:33.842Z,19.00
2022-08-20T11:33:01.059Z,18.77
2022-08-20T11:35:49.949Z,18.91
2022-08-20T11:38:18.308Z,18.76
2022-08-20T11:40:46.786Z,18.71
2022-08-20T11:43:15.913Z,18.59
2022-08-20T11:45:49.751Z,18.70
2022-08-20T11:48:16.960Z,18.77
2022-08-20T11:50:44.423Z,18.75
2022-08-20T11:53:11.175Z,18.91
2022-08-20T11:55:38.692Z,18.99
2022-08-20T11:58:06.113Z,19.11
2022-08-20T12:00:34.299Z,19.10
2022-08-20T12:03:04.997Z,19.22
2022-08-20T12:05:32.487Z,19.24
2022-08-20T12:08:01.370Z,19.16
2022-08-20T12:10:29.363Z,19.17
2022-08-20T12:12:56.664Z,19.10
2022-08-20T12:15:24.367Z,19.13
2022-08-20T12:17:51.103Z,19.12
2022-08-20T12:20:17.915Z,18.96
2022-08-20T12:22:44.791Z,19.07
2022-08-20T12:25:13.342Z,18.97
2022-08-20T12:27:41.438Z,19.01
2022-08-20T12:30:16.975Z,19.09
2022-08-20T12:32:44.705Z,19.26
2022-08-20T12:35:13.010Z,19.16
2022-08-20T12:37:40.764Z,19.04
2022-08-20T12:40:14.262Z,19.13
2022-08-20T12:42:41.281Z,19.13
2022-08-20T12:45:08.492Z,19.04
2022-08-20T12:47:38.014Z,19.19
2022-08-20T12:50:16.512Z,19.27
2022-08-20T12:52:43.253Z,19.20
2022-08-20T12:55:12.071Z,19.46
2022-08-20T12:57:42.043Z,19.43
2022-08-20T13:00:13.816Z,19.51
2022-08-20T13:02:41.405Z,19.70
2022-08-20T13:05:13.767Z,19.72
2022-08-20T13:07:41.326Z,19.90
2022-08-20T13:10:10.402Z,19.86
2022-08-20T13:12:37.190Z,20.07
2022-08-20T13:15:05.054Z,20.19
2022-08-20T13:17:38.597Z,20.23
2022-08-20T13:20:10.204Z,20.20
2022-08-20T13:22:37.050Z,20.42
2022-08-20T13:25:05.462Z,20.34
2022-08-20T13:27:32.246Z,20.20
2022-08-20T13:29:59.412Z,19.90
2022-08-20T13:32:27.828Z,19.88
2022-08-20T13:34:54.773Z,20.12
2022-08-20T13:37:25.775Z,19.99
2022-08-20T13:39:53.984Z,19.90
2022-08-20T13:42:21.202Z,19.84
2022-08-20T13:44:48.517Z,19.80
2022-08-20T13:47:19.637Z,19.72
2022-08-20T13:49:47.670Z,19.61
2022-08-20T13:52:16.996Z,19.90
2022-08-20T13:54:44.039Z,19.73
2022-08-20T13:57:13.857Z,19.37
2022-08-20T13:59:43.194Z,19.46
2022-08-20T14:02:11.399Z,19.57
2022-08-20T14:04:38.902Z,19.37
2022-08-20T14:07:32.615Z,19.38
2022-08-20T14:10:07.699Z,18.97
2022-08-20T14:12:34.919Z,18.60
2022-08-20T14:15:01.735Z,18.73
2022-08-20T14:17:37.279Z,19.09
2022-08-20T14:20:13.671Z,18.92
2022-08-20T14:22:42.491Z,19.15
2022-08-20T14:25:15.198Z,19.28
2022-08-20T14:27:42.204Z,19.27
2022-08-20T14:30:12.841Z,19.45
2022-08-20T14:32:39.575Z,19.43
2022-08-20T14:35:07.138Z,19.62
2022-08-20T14:37:39.319Z,19.57
2022-08-20T14:40:09.582Z,19.77
2022-08-20T14:42:36.963Z,19.87
2022-08-20T14:45:06.514Z,19.85
2022-08-20T14:47:40.179Z,19.76
2022-08-20T14:50:10.943Z,19.69
2022-08-20T14:52:38.028Z,19.56
2022-08-20T14:55:06.873Z,19.93
2022-08-20T14:57:34.012Z,20.11
2022-08-20T15:00:01.238Z,20.04
2022-08-20T15:02:27.931Z,20.02
2022-08-20T15:04:56.240Z,20.02
2022-08-20T15:07:37.950Z,20.15
2022-08-20T15:10:07.934Z,20.16
2022-08-20T15:12:37.744Z,20.31
2022-08-20T15:15:15.392Z,20.30
2022-08-20T15:18:09.022Z,20.17
2022-08-20T15:20:36.779Z,19.98
2022-08-20T15:23:04.799Z,19.79
2022-08-20T15:25:36.641Z,19.39
2022-08-20T15:28:06.896Z,19.38
2022-08-20T15:30:33.699Z,19.12
2022-08-20T15:33:00.828Z,18.73
2022-08-20T15:35:28.695Z,18.48
2022-08-20T15:37:58.195Z,18.27
2022-08-20T15:40:28.672Z,18.91
2022-08-20T15:42:57.205Z,19.14
2022-08-20T15:45:24.135Z,19.29
2022-08-20T15:48:00.470Z,19.33
2022-08-20T15:51:04.510Z,19.26
2022-08-20T15:53:39.587Z,18.95
2022-08-20T15:56:25.299Z,18.84
2022-08-20T15:59:00.701Z,18.81
2022-08-20T16:01:47.281Z,19.22
2022-08-20T16:04:58.535Z,19.55
2022-08-20T16:07:39.347Z,19.46
2022-08-20T16:10:16.102Z,19.61
2022-08-20T16:12:48.275Z,19.73
2022-08-20T16:15:20.800Z,19.69
2022-08-20T16:17:51.658Z,19.45
2022-08-20T16:20:35.941Z,19.71
2022-08-20T16:23:04.032Z,19.78
2022-08-20T16:25:39.410Z,19.94
2022-08-20T16:28:29.071Z,19.84
2022-08-20T16:31:05.490Z,19.55
2022-08-20T16:33:45.371Z,19.84
2022-08-20T16:36:37.431Z,20.00
2022-08-20T16:39:08.226Z,20.01
2022-08-20T16:41:47.461Z,20.18
2022-08-20T16:44:35.286Z,20.08
2022-08-20T16:47:14.330Z,19.88
2022-08-20T16:49:49.793Z,20.08
2022-08-20T16:52:16.478Z,20.08
2022-08-20T16:54:44.766Z,20.01
2022-08-20T16:57:17.057Z,19.91
2022-08-20T16:59:57.775Z,19.87
2022-08-20T17:02:25.485Z,19.77
2022-08-20T17:04:58.887Z,19.88
2022-08-20T17:07:46.185Z,20.10
2022-08-20T17:10:24.139Z,19.79
2022-08-20T17:13:02.658Z,19.81
2022-08-20T17:15:32.563Z,19.58
2022-08-20T17:18:24.392Z,19.61
2022-08-20T17:20:51.373Z,19.45
2022-08-20T17:23:19.784Z,19.57
2022-08-20T17:26:00.567Z,19.74
2022-08-20T17:28:33.177Z,19.66
2022-08-20T17:31:01.857Z,19.77
2022-08-20T17:33:33.893Z,19.82
2022-08-20T17:36:19.725Z,19.89
2022-08-20T17:38:51.768Z,19.81
2022-08-20T17:41:26.793Z,19.73
2022-08-20T17:44:07.250Z,19.82
2022-08-20T17:46:45.669Z,19.54
2022-08-20T17:49:17.741Z,19.56
2022-08-20T17:51:50.895Z,19.72
2022-08-20T17:54:23.634Z,20.04
2022-08-20T17:56:52.223Z,20.01
2022-08-20T17:59:44.400Z,20.18
2022-08-20T18:02:09.089Z,20.36
2022-08-20T18:04:35.819Z,20.43
2022-08-20T18:07:11.207Z,20.34
2022-08-20T18:09:46.575Z,20.46
2022-08-20T18:12:33.825Z,20.39
2022-08-20T18:15:16.130Z,20.42
2022-08-20T18:18:01.481Z,20.53
2022-08-20T18:20:28.053Z,20.42
2022-08-20T18:23:06.776Z,20.50
2022-08-20T18:25:46.051Z,20.32
2022-08-20T18:28:12.585Z,20.13
2022-08-20T18:30:47.639Z,20.05
2022-08-20T18:33:14.256Z,20.12
2022-08-20T18:35:45.535Z,20.27
2022-08-20T18:38:26.142Z,20.13
2022-08-20T18:40:55.259Z,20.27
2022-08-20T18:43:30.539Z,20.25
2022-08-20T18:46:08.674Z,20.38
2022-08-20T18:48:35.279Z,20.10
2022-08-20T18:51:03.182Z,20.26
2022-08-20T18:53:33.849Z,20.24
2022-08-20T18:56:08.671Z,20.05
2022-08-20T18:58:50.108Z,20.07
2022-08-20T19:01:19.264Z,19.51
2022-08-20T19:03:47.651Z,19.57
2022-08-20T19:06:29.350Z,19.63
2022-08-20T19:09:14.920Z,19.52
2022-08-20T19:12:00.332Z,19.54
2022-08-20T19:14:33.051Z,19.88
2022-08-20T19:17:06.723Z,19.98
2022-08-20T19:19:33.523Z,20.02
2022-08-20T19:22:01.238Z,20.13
2022-08-20T19:24:29.310Z,20.07
2022-08-20T19:27:04.573Z,20.16
2022-08-20T19:29:33.058Z,20.20
2022-08-20T19:32:00.975Z,20.20
2022-08-20T19:34:28.256Z,20.15
2022-08-20T19:37:02.155Z,20.08
2022-08-20T19:39:37.466Z,19.95
2022-08-20T19:42:04.057Z,20.14
2022-08-20T19:44:32.817Z,19.91
2022-08-20T19:47:01.106Z,19.99
2022-08-20T19:49:36.531Z,19.80
2022-08-20T19:52:09.658Z,19.45
2022-08-20T19:54:43.910Z,19.02
2022-08-20T19:57:10.825Z,18.82
2022-08-20T19:59:37.944Z,18.51
2022-08-20T20:02:20.674Z,18.05
2022-08-20T20:04:54.979Z,18.16
2022-08-20T20:07:45.069Z,18.88
2022-08-20T20:10:23.631Z,18.77
2022-08-20T20:12:50.406Z,19.12
2022-08-20T20:15:17.735Z,19.21
2022-08-20T20:17:44.742Z,18.89
2022-08-20T20:20:17.406Z,19.29
2022-08-20T20:22:52.015Z,19.22
2022-08-20T20:25:27.703Z,19.13
2022-08-20T20:27:55.653Z,18.87
2022-08-20T20:30:33.512Z,18.40
2022-08-20T20:33:01.316Z,18.16
2022-08-20T20:35:32.936Z,18.42
2022-08-20T20:38:04.454Z,18.27
2022-08-20T20:40:33.997Z,18.03
2022-08-20T20:43:07.611Z,18.22
2022-08-20T20:45:39.578Z,17.99
2022-08-20T20:48:14.136Z,18.23
2022-08-20T20:50:40.683Z,18.66
2022-08-20T20:53:07.574Z,18.63
2022-08-20T20:55:37.414Z,18.99
2022-08-20T20:58:03.996Z,19.18
2022-08-20T21:00:33.089Z,19.35
2022-08-20T21:03:00.291Z,19.34
2022-08-20T21:05:30.327Z,19.50
2022-08-20T21:07:58.612Z,19.43
2022-08-20T21:10:27.519Z,19.55
2022-08-20T21:12:54.426Z,19.29
2022-08-20T21:15:22.313Z,19.42
2022-08-20T21:17:48.951Z,19.61
2022-08-20T21:20:15.540Z,19.65
2022-08-20T21:22:42.102Z,19.76
2022-08-20T21:25:08.806Z,19.64
2022-08-20T21:27:35.810Z,19.36
2022-08-20T21:30:03.648Z,19.38
2022-08-20T21:32:30.211Z,19.55
2022-08-20T21:34:56.726Z,19.66
2022-08-20T21:37:23.245Z,19.77
2022-08-20T21:39:49.763Z,19.82
2022-08-20T21:42:28.799Z,19.82
2022-08-20T21:44:56.624Z,19.66
2022-08-20T21:47:23.147Z,19.58
2022-08-20T21:49:49.643Z,19.63
2022-08-20T21:52:16.186Z,19.38
2022-08-20T21:54:42.700Z,19.41
2022-08-20T21:57:13.576Z,19.69
2022-08-20T21:59:41.426Z,19.64
2022-08-20T22:02:08.344Z,19.81
2022-08-20T22:04:35.622Z,19.90
2022-08-20T22:07:03.553Z,19.94
2022-08-20T22:09:32.850Z,19.96
2022-08-20T22:12:02.730Z,19.95
2022-08-20T22:14:29.542Z,19.78
2022-08-20T22:16:56.058Z,19.78
2022-08-20T22:19:22.586Z,19.27
2022-08-20T22:21:49.619Z,19.05
2022-08-20T22:24:16.125Z,18.83
2022-08-20T22:26:42.907Z,18.74
2022-08-20T22:29:10.165Z,18.03
2022-08-20T22:31:38.499Z,18.08
2022-08-20T22:34:05.467Z,18.17
2022-08-20T22:36:32.838Z,18.70
2022-08-20T22:38:59.633Z,18.80
2022-08-20T22:41:26.139Z,17.98
2022-08-20T22:43:56.934Z,17.59
2022-08-20T22:46:26.462Z,17.47
2022-08-20T22:48:53.722Z,18.10
2022-08-20T22:51:30.392Z,18.54
2022-08-20T22:53:57.333Z,18.21
2022-08-20T22:56:23.923Z,18.06
2022-08-20T22:58:51.072Z,17.89
2022-08-20T23:01:18.756Z,18.00
2022-08-20T23:03:45.884Z,18.48
2022-08-20T23:06:12.865Z,18.55
2022-08-20T23:08:40.033Z,18.85
2022-08-20T23:11:06.595Z,19.07
2022-08-20T23:13:33.334Z,19.22
2022-08-20T23:15:59.903Z,19.14
2022-08-20T23:18:26.482Z,19.29
2022-08-20T23:20:56.109Z,19.43
2022-08-20T23:23:24.214Z,19.40
2022-08-20T23:25:50.797Z,19.43
2022-08-20T23:28:21.058Z,19.51
2022-08-20T23:30:47.621Z,19.53
2022-08-20T23:33:14.651Z,19.32
2022-08-20T23:35:41.983Z,19.36
2022-08-20T23:38:08.634Z,19.52
2022-08-20T23:40:35.458Z,19.60
2022-08-20T23:43:02.105Z,19.72
2022-08-20T23:45:28.794Z,19.75
2022-08-20T23:47:55.371Z,19.77
2022-08-20T23:50:25.789Z,19.77
2022-08-20T23:52:52.738Z,19.50
2022-08-20T23:55:19.479Z,19.01
2022-08-20T23:57:46.019Z,19.38
